Time;durP1;ratioP1;P1;durP2;ratioP2;P2;SDS_P1;SDS_P2;PMS_P1;PMS_P2;Temp;Humidity;BMP_temperature;BMP_pressure;BME280_temperature;BME280_humidity;BME280_pressure;Samples;Min_cycle;Max_cycle;Signal;HPM_P1;HPM_P2
2022/12/05 00:01:56;;;;;;;155.82;51.28;;;4.30;99.90;;;;;;5070963;28;20198;-48
2022/12/05 00:04:23;;;;;;;182.93;58.08;;;4.10;99.90;;;;;;5070802;28;20215;-50
2022/12/05 00:06:51;;;;;;;176.68;55.60;;;4.20;99.90;;;;;;5070993;28;20199;-48
2022/12/05 00:09:17;;;;;;;174.77;54.90;;;4.10;99.90;;;;;;5052272;28;20198;-48
2022/12/05 00:11:45;;;;;;;184.23;53.88;;;4.30;99.90;;;;;;5070901;28;20202;-49
2022/12/05 00:14:13;;;;;;;178.93;56.47;;;4.20;99.90;;;;;;5071233;28;20199;-49
2022/12/05 00:16:41;;;;;;;162.73;53.22;;;4.30;99.90;;;;;;5070677;28;20713;-49
2022/12/05 00:19:10;;;;;;;179.95;54.45;;;4.10;99.90;;;;;;5070030;28;20223;-48
2022/12/05 00:21:37;;;;;;;163.98;55.90;;;4.10;99.90;;;;;;5071026;28;20195;-49
2022/12/05 00:24:08;;;;;;;166.75;52.30;;;4.20;99.90;;;;;;5073800;28;20210;-49
2022/12/05 00:26:35;;;;;;;165.27;53.65;;;4.40;99.90;;;;;;5074364;28;20606;-49
2022/12/05 00:29:02;;;;;;;157.35;51.85;;;3.80;99.90;;;;;;5073759;28;20206;-49
2022/12/05 00:31:28;;;;;;;165.32;54.78;;;4.40;99.90;;;;;;5056227;28;20210;-49
2022/12/05 00:33:56;;;;;;;166.70;54.35;;;4.90;99.90;;;;;;5074208;28;20210;-50
2022/12/05 00:36:24;;;;;;;159.55;53.00;;;4.50;99.90;;;;;;5074230;28;20563;-49
2022/12/05 00:38:51;;;;;;;196.45;53.67;;;4.40;99.90;;;;;;5073613;28;20268;-49
2022/12/05 00:41:21;;;;;;;177.90;57.35;;;4.40;99.90;;;;;;5074060;28;20199;-49
2022/12/05 00:43:48;;;;;;;184.30;55.90;;;4.30;99.90;;;;;;5074254;28;20199;-49
2022/12/05 00:46:17;;;;;;;175.63;57.20;;;4.90;99.90;;;;;;5074047;28;20231;-49
2022/12/05 00:48:44;;;;;;;168.73;56.03;;;4.20;99.90;;;;;;5073393;28;20561;-49
2022/12/05 00:51:14;;;;;;;179.00;56.42;;;4.30;99.90;;;;;;5074757;28;20597;-48
2022/12/05 00:53:41;;;;;;;196.90;56.92;;;4.40;99.90;;;;;;5074344;28;20202;-48
2022/12/05 00:56:09;;;;;;;189.30;55.25;;;4.30;99.90;;;;;;5056467;28;20223;-48
2022/12/05 00:58:38;;;;;;;150.05;55.28;;;4.30;99.90;;;;;;5073934;28;20229;-48
2022/12/05 01:01:09;;;;;;;175.23;56.42;;;4.30;99.90;;;;;;5073814;28;20192;-48
2022/12/05 01:03:36;;;;;;;133.48;52.50;;;4.20;99.90;;;;;;5074427;28;20191;-48
2022/12/05 01:06:04;;;;;;;185.00;57.10;;;4.50;99.90;;;;;;5056160;28;20291;-49
2022/12/05 01:08:31;;;;;;;146.80;54.80;;;4.30;99.90;;;;;;5073246;28;20282;-49
2022/12/05 01:10:58;;;;;;;155.77;53.92;;;4.30;99.90;;;;;;5074028;28;20203;-48
2022/12/05 01:13:26;;;;;;;170.73;56.25;;;4.40;99.90;;;;;;5073884;28;20560;-48
2022/12/05 01:15:54;;;;;;;171.43;55.92;;;4.00;99.90;;;;;;5073892;28;20211;-48
2022/12/05 01:18:22;;;;;;;164.13;55.20;;;4.70;99.90;;;;;;5073861;28;20200;-48
2022/12/05 01:20:49;;;;;;;172.40;56.15;;;4.40;99.90;;;;;;5073707;28;20191;-48
2022/12/05 01:23:16;;;;;;;172.68;56.78;;;4.30;99.90;;;;;;5073720;28;20656;-47
2022/12/05 01:25:44;;;;;;;179.45;54.78;;;4.40;99.90;;;;;;5073679;28;20219;-49
2022/12/05 01:28:12;;;;;;;176.88;54.40;;;4.50;99.90;;;;;;5073789;28;20548;-48
2022/12/05 01:30:39;;;;;;;153.63;52.95;;;4.20;99.90;;;;;;5071658;28;20282;-48
2022/12/05 01:33:07;;;;;;;163.02;55.35;;;4.30;99.90;;;;;;5072952;28;20667;-48
2022/12/05 01:35:35;;;;;;;156.45;58.15;;;4.20;99.90;;;;;;5073477;28;20215;-49
2022/12/05 01:38:02;;;;;;;160.00;52.15;;;4.60;99.90;;;;;;5073231;28;20195;-49
2022/12/05 01:40:29;;;;;;;154.15;54.05;;;4.40;99.90;;;;;;5072564;28;20195;-50
2022/12/05 01:42:55;;;;;;;197.80;57.22;;;4.40;99.90;;;;;;5073260;28;20195;-48
2022/12/05 01:45:31;;;;;;;177.02;53.25;;;4.40;99.90;;;;;;5072833;28;20235;-49
2022/12/05 01:47:58;;;;;;;173.50;54.58;;;4.30;99.90;;;;;;5073103;28;20252;-49
2022/12/05 01:50:26;;;;;;;145.45;54.42;;;4.40;99.90;;;;;;5072277;28;20191;-49
2022/12/05 01:52:52;;;;;;;156.80;52.90;;;4.30;99.90;;;;;;5072742;28;20206;-49
2022/12/05 01:55:19;;;;;;;162.77;56.63;;;4.60;99.90;;;;;;5072663;28;20606;-49
2022/12/05 01:57:47;;;;;;;153.43;50.80;;;4.50;99.90;;;;;;5072699;28;20244;-49
2022/12/05 02:00:17;;;;;;;155.70;51.30;;;4.50;99.90;;;;;;5071941;28;20202;-50
2022/12/05 02:02:47;;;;;;;154.00;54.88;;;4.50;99.90;;;;;;5054865;28;20674;-50
2022/12/05 02:05:17;;;;;;;176.48;55.42;;;4.50;99.90;;;;;;5072572;28;20219;-49
2022/12/05 02:07:47;;;;;;;159.73;51.72;;;4.50;99.90;;;;;;5072677;28;20210;-49
2022/12/05 02:10:15;;;;;;;167.95;50.60;;;4.30;99.90;;;;;;5072287;28;20274;-49
2022/12/05 02:12:44;;;;;;;168.20;53.88;;;4.50;99.90;;;;;;5072583;28;20230;-49
2022/12/05 02:15:23;;;;;;;185.50;54.90;;;4.30;99.90;;;;;;5072494;28;20253;-48
2022/12/05 02:18:02;;;;;;;183.90;55.70;;;4.60;99.90;;;;;;5072521;28;20191;-48
2022/12/05 02:20:44;;;;;;;178.20;54.83;;;4.50;99.90;;;;;;5071771;28;20636;-48
2022/12/05 02:23:31;;;;;;;169.80;56.17;;;4.20;99.90;;;;;;5072453;28;20202;-48
2022/12/05 02:26:35;;;;;;;163.32;52.58;;;4.30;99.90;;;;;;5072121;28;20231;-48
2022/12/05 02:29:24;;;;;;;150.32;50.97;;;4.20;99.90;;;;;;5071444;28;20202;-49
2022/12/05 02:32:00;;;;;;;149.32;52.08;;;4.40;99.90;;;;;;5072176;28;20661;-49
2022/12/05 02:34:33;;;;;;;158.75;53.33;;;4.60;99.90;;;;;;5071947;28;20190;-48
2022/12/05 02:37:04;;;;;;;152.98;51.20;;;4.30;99.90;;;;;;5071983;28;20198;-48
2022/12/05 02:39:40;;;;;;;160.13;51.63;;;4.60;99.90;;;;;;5071321;28;20668;-48
2022/12/05 02:42:12;;;;;;;167.85;53.17;;;4.30;99.90;;;;;;5071876;28;20256;-49
2022/12/05 02:44:45;;;;;;;145.83;50.37;;;4.50;99.90;;;;;;5071301;28;20554;-47
2022/12/05 02:47:16;;;;;;;154.88;52.22;;;4.40;99.90;;;;;;5071592;28;20844;-50
2022/12/05 02:49:43;;;;;;;153.32;51.80;;;4.50;99.90;;;;;;5071083;28;20210;-49
2022/12/05 02:52:14;;;;;;;145.75;51.50;;;4.70;99.90;;;;;;5071938;28;20203;-48
2022/12/05 02:54:44;;;;;;;133.90;50.75;;;4.90;99.90;;;;;;5072439;28;20215;-48
2022/12/05 02:57:12;;;;;;;134.90;49.50;;;4.50;99.90;;;;;;5072186;28;20600;-49
2022/12/05 02:59:39;;;;;;;142.60;50.33;;;4.50;99.90;;;;;;5071373;28;20199;-48
2022/12/05 03:02:07;;;;;;;157.45;50.95;;;4.70;99.90;;;;;;5071841;28;20207;-48
2022/12/05 03:04:35;;;;;;;145.13;50.90;;;4.60;99.90;;;;;;5053960;28;20199;-48
2022/12/05 03:07:07;;;;;;;142.40;48.08;;;4.60;99.90;;;;;;5053705;28;20219;-48
2022/12/05 03:09:37;;;;;;;137.60;46.50;;;4.20;99.90;;;;;;5071209;28;20214;-49
2022/12/05 03:12:09;;;;;;;142.65;49.35;;;4.90;99.90;;;;;;5071938;28;20202;-48
2022/12/05 03:14:41;;;;;;;137.48;47.97;;;4.90;99.90;;;;;;5071529;28;20202;-49
2022/12/05 03:17:13;;;;;;;142.65;48.45;;;4.40;99.90;;;;;;5071724;28;20196;-49
2022/12/05 03:19:56;;;;;;;109.25;44.90;;;3.80;99.90;;;;;;5070774;28;20200;-49
2022/12/05 03:22:30;;;;;;;119.45;47.20;;;4.20;99.90;;;;;;5071789;28;20282;-48
2022/12/05 03:24:58;;;;;;;99.72;42.53;;;4.60;99.90;;;;;;5071288;28;20703;-53
2022/12/05 03:27:30;;;;;;;98.30;40.40;;;4.40;99.90;;;;;;5071405;28;20260;-47
2022/12/05 03:30:03;;;;;;;104.55;43.17;;;4.30;99.90;;;;;;5070682;28;20195;-49
2022/12/05 03:32:36;;;;;;;86.65;39.65;;;4.40;99.90;;;;;;5071360;28;20199;-49
2022/12/05 03:35:09;;;;;;;91.05;41.17;;;4.90;99.90;;;;;;5071331;28;20219;-49
2022/12/05 03:37:45;;;;;;;94.75;40.08;;;4.30;99.90;;;;;;5071542;28;20214;-49
2022/12/05 03:40:21;;;;;;;94.50;38.25;;;4.40;99.90;;;;;;5070973;28;20206;-48
2022/12/05 03:42:54;;;;;;;91.70;39.25;;;4.30;99.90;;;;;;5071247;28;20678;-48
2022/12/05 03:45:28;;;;;;;95.63;39.70;;;4.10;99.90;;;;;;5071168;28;20273;-49
2022/12/05 03:48:03;;;;;;;86.40;38.95;;;4.50;99.90;;;;;;5071551;28;20195;-48
2022/12/05 03:50:32;;;;;;;86.72;35.50;;;4.70;99.90;;;;;;5070658;28;20203;-49
2022/12/05 03:53:04;;;;;;;75.93;36.03;;;5.10;99.90;;;;;;5071351;28;20199;-49
2022/12/05 03:55:34;;;;;;;93.72;39.33;;;4.40;99.90;;;;;;5071434;28;20215;-48
2022/12/05 03:58:05;;;;;;;86.72;39.08;;;4.40;99.90;;;;;;5074875;28;20278;-48
2022/12/05 04:00:36;;;;;;;89.82;38.95;;;4.60;99.90;;;;;;5074669;28;20611;-49
2022/12/05 04:03:07;;;;;;;86.28;37.97;;;4.50;99.90;;;;;;5073915;28;20542;-49
2022/12/05 04:05:42;;;;;;;81.07;38.20;;;4.50;99.90;;;;;;5074926;28;20222;-49
2022/12/05 04:08:16;;;;;;;70.32;37.05;;;4.60;99.90;;;;;;5075257;28;20210;-49
2022/12/05 04:10:49;;;;;;;86.15;36.83;;;4.40;99.90;;;;;;5074561;28;20191;-49
2022/12/05 04:13:21;;;;;;;74.50;38.08;;;4.70;99.90;;;;;;5074985;28;20203;-49
2022/12/05 04:18:41;;;;;;;72.80;36.90;;;4.60;99.90;;;;;;5074234;28;20227;-49
2022/12/05 04:26:43;;;;;;;84.95;35.83;;;4.70;99.90;;;;;;5073631;28;20625;-49
2022/12/05 04:29:16;;;;;;;77.53;34.67;;;4.50;99.90;;;;;;5074088;28;20528;-48
2022/12/05 04:31:47;;;;;;;76.38;33.78;;;3.90;99.90;;;;;;5073206;28;20298;-49
2022/12/05 04:34:15;;;;;;;77.53;37.83;;;4.80;99.90;;;;;;5074502;28;20192;-48
2022/12/05 04:36:46;;;;;;;78.05;37.08;;;4.20;99.90;;;;;;5074665;28;20704;-48
2022/12/05 04:39:19;;;;;;;74.72;34.72;;;4.80;99.90;;;;;;5073569;28;20664;-48
2022/12/05 04:41:51;;;;;;;70.43;36.83;;;4.70;99.90;;;;;;5074551;28;20202;-49
2022/12/05 04:44:23;;;;;;;73.85;36.03;;;4.50;99.90;;;;;;5074098;28;20206;-48
2022/12/05 04:46:52;;;;;;;75.82;35.45;;;4.80;99.90;;;;;;5071794;22;20235;-49
2022/12/05 04:49:24;;;;;;;69.10;36.15;;;4.70;99.90;;;;;;5053798;28;20196;-50
2022/12/05 04:51:55;;;;;;;68.35;33.85;;;4.70;99.90;;;;;;5054666;28;20423;-50
2022/12/05 04:54:27;;;;;;;61.60;33.53;;;4.60;99.90;;;;;;5054468;28;20203;-49
2022/12/05 04:56:59;;;;;;;72.43;34.28;;;4.40;99.90;;;;;;5054163;28;20231;-51
2022/12/05 04:59:25;;;;;;;62.65;31.20;;;4.90;99.90;;;;;;5053500;28;20204;-50
2022/12/05 05:01:56;;;;;;;67.60;33.15;;;4.50;99.90;;;;;;5054593;28;20204;-50
2022/12/05 05:04:29;;;;;;;59.33;32.47;;;4.70;99.90;;;;;;5054225;28;20200;-49
2022/12/05 05:06:57;;;;;;;56.75;30.38;;;4.70;99.90;;;;;;5054126;28;20600;-49
2022/12/05 05:09:24;;;;;;;57.47;29.65;;;4.70;99.90;;;;;;5052716;28;20250;-51
2022/12/05 05:11:50;;;;;;;52.95;30.50;;;4.60;99.90;;;;;;5054055;28;20206;-50
2022/12/05 05:14:17;;;;;;;56.08;29.95;;;4.60;99.90;;;;;;5053954;28;20200;-50
2022/12/05 05:16:44;;;;;;;55.53;29.98;;;4.60;99.90;;;;;;5053864;28;20216;-50
2022/12/05 05:19:11;;;;;;;68.05;33.95;;;4.80;99.90;;;;;;5053034;28;20192;-50
2022/12/05 05:21:39;;;;;;;53.92;29.25;;;4.50;99.90;;;;;;5053920;28;20196;-50
2022/12/05 05:24:09;;;;;;;53.85;30.02;;;4.00;99.90;;;;;;5053780;28;20545;-51
2022/12/05 05:26:38;;;;;;;60.88;29.13;;;4.50;99.90;;;;;;5053386;28;20219;-51
2022/12/05 05:29:05;;;;;;;47.70;27.20;;;4.50;99.90;;;;;;5052920;28;20196;-50
2022/12/05 05:31:32;;;;;;;47.50;27.17;;;4.20;99.90;;;;;;5054503;28;20196;-50
2022/12/05 05:33:59;;;;;;;50.03;29.35;;;4.50;99.90;;;;;;5053656;28;20203;-50
2022/12/05 05:36:27;;;;;;;50.13;25.17;;;4.60;99.90;;;;;;5053626;28;20227;-51
2022/12/05 05:38:55;;;;;;;49.22;27.40;;;4.50;99.90;;;;;;5052766;28;20598;-51
2022/12/05 05:41:25;;;;;;;42.45;24.88;;;4.50;99.90;;;;;;5053254;28;20200;-50
2022/12/05 05:43:52;;;;;;;39.20;24.38;;;4.10;99.90;;;;;;5053645;28;20216;-51
2022/12/05 05:46:21;;;;;;;40.78;25.02;;;4.50;99.90;;;;;;5053097;28;20228;-50
2022/12/05 05:48:48;;;;;;;39.05;24.33;;;4.90;99.90;;;;;;5052609;28;20204;-50
2022/12/05 05:51:16;;;;;;;40.38;22.55;;;4.50;99.90;;;;;;5053429;28;20207;-49
2022/12/05 05:53:43;;;;;;;40.17;23.63;;;4.60;99.90;;;;;;5052991;28;20192;-49
2022/12/05 05:56:12;;;;;;;36.85;23.25;;;4.60;99.90;;;;;;5053057;28;20220;-50
2022/12/05 05:58:40;;;;;;;34.17;21.95;;;4.70;99.90;;;;;;5052434;28;20587;-49
2022/12/05 06:01:07;;;;;;;39.00;22.55;;;4.70;99.90;;;;;;5052888;28;20193;-49
2022/12/05 06:03:34;;;;;;;42.92;22.25;;;4.80;99.90;;;;;;5053167;28;20573;-50
2022/12/05 06:06:03;;;;;;;41.22;20.17;;;4.60;99.90;;;;;;5052861;28;20227;-50
2022/12/05 06:08:30;;;;;;;33.80;20.73;;;4.50;99.90;;;;;;5052051;28;20200;-50
2022/12/05 06:10:56;;;;;;;35.30;20.20;;;4.80;99.90;;;;;;5052821;28;20227;-51
2022/12/05 06:13:23;;;;;;;29.80;20.90;;;4.50;99.90;;;;;;5052618;28;20196;-50
2022/12/05 06:15:51;;;;;;;35.70;20.05;;;4.60;99.90;;;;;;5052604;28;20250;-50
2022/12/05 06:18:18;;;;;;;32.05;20.20;;;4.20;99.90;;;;;;5052474;28;20200;-51
2022/12/05 06:20:51;;;;;;;37.53;19.15;;;4.70;99.90;;;;;;5051690;28;20407;-50
2022/12/05 06:23:18;;;;;;;30.85;19.23;;;4.70;99.90;;;;;;5052418;28;20201;-50
2022/12/05 06:25:47;;;;;;;30.20;18.92;;;4.60;99.90;;;;;;5052501;28;20713;-50
2022/12/05 06:28:14;;;;;;;31.75;18.90;;;4.50;99.90;;;;;;5052195;28;20700;-51
2022/12/05 06:30:40;;;;;;;28.75;17.95;;;4.90;99.90;;;;;;5051707;28;20215;-51
2022/12/05 06:33:08;;;;;;;29.60;19.85;;;4.50;99.90;;;;;;5052280;28;20208;-50
2022/12/05 06:35:35;;;;;;;31.48;19.00;;;4.60;99.90;;;;;;5051858;28;20224;-53
2022/12/05 06:38:03;;;;;;;29.42;19.48;;;4.70;99.90;;;;;;5052347;28;20184;-50
2022/12/05 06:40:29;;;;;;;32.15;19.58;;;4.30;99.90;;;;;;5051618;28;20196;-50
2022/12/05 06:42:56;;;;;;;30.48;18.73;;;4.70;99.90;;;;;;5051671;28;20207;-50
2022/12/05 06:45:23;;;;;;;36.75;20.05;;;4.60;99.90;;;;;;5033651;28;20323;-49
2022/12/05 06:47:50;;;;;;;38.08;22.05;;;4.70;99.90;;;;;;5051565;28;20267;-50
2022/12/05 06:50:19;;;;;;;31.70;20.73;;;4.70;99.90;;;;;;5050606;28;20199;-51
2022/12/05 06:52:46;;;;;;;35.40;23.20;;;4.90;99.90;;;;;;5051456;28;20379;-50
2022/12/05 06:55:12;;;;;;;33.00;20.40;;;4.70;99.90;;;;;;5033443;28;20250;-51
2022/12/05 06:57:39;;;;;;;32.05;20.13;;;5.40;99.90;;;;;;5051353;28;20207;-50
2022/12/05 07:02:52;;;;;;;32.88;20.80;;;4.70;99.90;;;;;;5051687;28;20192;-50
2022/12/05 07:05:20;;;;;;;35.50;20.67;;;5.50;99.90;;;;;;5051840;28;20235;-50
2022/12/05 07:07:47;;;;;;;32.00;21.20;;;4.80;99.90;;;;;;5051838;28;20219;-52
2022/12/05 07:10:13;;;;;;;33.47;21.00;;;5.00;99.90;;;;;;5050918;28;20196;-50
2022/12/05 07:12:40;;;;;;;32.88;20.40;;;5.20;99.90;;;;;;5051419;28;20196;-50
2022/12/05 07:15:07;;;;;;;31.55;20.60;;;5.10;99.90;;;;;;5051019;28;20287;-50
2022/12/05 07:17:37;;;;;;;37.25;20.85;;;5.00;99.90;;;;;;5051453;28;20196;-50
2022/12/05 07:20:05;;;;;;;29.63;19.25;;;4.70;99.90;;;;;;5050663;28;20196;-51
2022/12/05 07:22:35;;;;;;;39.58;22.25;;;4.80;99.90;;;;;;5051195;28;20211;-51
2022/12/05 07:25:02;;;;;;;29.52;19.73;;;5.10;99.90;;;;;;5051527;28;20562;-50
2022/12/05 07:27:29;;;;;;;33.65;21.10;;;5.50;99.90;;;;;;5050996;28;20294;-50
2022/12/05 07:29:55;;;;;;;42.33;21.23;;;4.90;99.90;;;;;;5050669;28;20203;-51
2022/12/05 07:32:22;;;;;;;37.78;22.00;;;4.90;99.90;;;;;;5055582;28;20603;-53
2022/12/05 07:34:48;;;;;;;29.42;20.60;;;5.50;99.90;;;;;;5057461;28;20202;-51
2022/12/05 07:37:15;;;;;;;41.55;23.80;;;5.00;99.90;;;;;;5058006;28;20196;-51
2022/12/05 07:39:43;;;;;;;30.63;21.77;;;4.90;99.90;;;;;;5056579;28;20666;-51
2022/12/05 07:42:09;;;;;;;34.50;20.02;;;5.20;99.90;;;;;;5058312;28;20226;-50
2022/12/05 07:44:36;;;;;;;35.40;22.42;;;4.30;99.90;;;;;;5057817;28;20203;-51
2022/12/05 07:47:03;;;;;;;37.17;22.15;;;4.80;99.90;;;;;;5057746;28;20587;-51
2022/12/05 07:49:29;;;;;;;34.20;21.40;;;4.90;99.90;;;;;;5057115;28;20664;-51
2022/12/05 07:51:57;;;;;;;37.78;22.17;;;5.50;99.90;;;;;;5057831;28;20603;-51
2022/12/05 07:54:23;;;;;;;29.83;19.05;;;4.80;99.90;;;;;;5057559;28;20197;-51
2022/12/05 07:56:51;;;;;;;33.15;19.75;;;4.90;99.90;;;;;;5057133;28;20231;-51
2022/12/05 07:59:18;;;;;;;30.08;20.92;;;4.90;99.90;;;;;;5039012;28;20208;-51
2022/12/05 08:01:44;;;;;;;34.13;19.85;;;4.90;99.90;;;;;;5057428;28;20656;-51
2022/12/05 08:04:11;;;;;;;34.95;20.00;;;5.00;99.90;;;;;;5057838;28;20192;-49
2022/12/05 08:06:38;;;;;;;28.50;19.45;;;4.90;99.90;;;;;;5057559;28;20218;-50
2022/12/05 08:09:05;;;;;;;34.38;20.25;;;5.10;99.90;;;;;;5057082;28;20202;-51
2022/12/05 08:11:35;;;;;;;34.25;19.50;;;5.20;99.90;;;;;;5057908;28;20261;-50
2022/12/05 08:14:04;;;;;;;31.20;18.75;;;5.20;99.90;;;;;;5057647;28;20363;-49
2022/12/05 08:16:32;;;;;;;31.65;19.58;;;5.00;99.90;;;;;;5057699;28;20220;-50
2022/12/05 08:19:01;;;;;;;31.60;19.67;;;4.90;99.90;;;;;;5057154;28;20206;-50
2022/12/05 08:21:28;;;;;;;27.75;19.33;;;5.10;99.90;;;;;;5057519;28;20192;-50
2022/12/05 08:23:55;;;;;;;31.45;19.73;;;5.00;99.90;;;;;;5039472;28;20195;-50
2022/12/05 08:26:24;;;;;;;31.00;19.60;;;5.20;99.90;;;;;;5039600;28;20228;-51
2022/12/05 08:28:52;;;;;;;29.05;19.27;;;5.10;99.90;;;;;;5056712;28;20220;-51
2022/12/05 08:31:22;;;;;;;29.13;18.85;;;5.10;99.90;;;;;;5057667;28;20266;-51
2022/12/05 08:33:49;;;;;;;28.48;21.02;;;5.20;99.90;;;;;;5057561;28;20195;-51
2022/12/05 08:36:16;;;;;;;30.98;21.20;;;5.20;99.90;;;;;;5057548;28;20286;-51
2022/12/05 08:38:43;;;;;;;35.45;22.23;;;4.90;99.90;;;;;;5056613;28;20215;-51
2022/12/05 08:41:12;;;;;;;35.78;22.33;;;5.30;99.90;;;;;;5057797;28;20196;-51
2022/12/05 08:43:39;;;;;;;34.13;21.85;;;5.40;99.90;;;;;;5036415;28;20200;-51
2022/12/05 08:46:06;;;;;;;31.67;20.98;;;5.10;99.90;;;;;;5035583;28;20235;-50
2022/12/05 08:48:35;;;;;;;33.45;21.13;;;5.80;99.90;;;;;;5053702;28;20227;-51
2022/12/05 08:51:05;;;;;;;32.58;20.88;;;5.40;99.90;;;;;;5054054;28;20201;-51
2022/12/05 08:53:32;;;;;;;28.02;19.17;;;5.10;99.90;;;;;;5054358;28;20692;-51
2022/12/05 08:56:00;;;;;;;29.25;19.92;;;5.30;99.90;;;;;;5036126;28;20220;-50
2022/12/05 08:58:27;;;;;;;31.98;21.90;;;5.40;99.90;;;;;;5053352;28;20672;-51
2022/12/05 09:00:53;;;;;;;32.38;20.73;;;5.10;99.90;;;;;;5036029;28;20254;-51
2022/12/05 09:03:20;;;;;;;33.35;22.60;;;5.40;99.90;;;;;;5054184;28;20200;-50
2022/12/05 09:05:48;;;;;;;33.28;21.10;;;5.10;99.90;;;;;;5054209;28;20216;-50
2022/12/05 09:08:14;;;;;;;26.85;18.92;;;5.00;99.90;;;;;;5036062;28;20227;-50
2022/12/05 09:10:41;;;;;;;27.77;21.50;;;5.10;99.90;;;;;;5052970;28;20200;-50
2022/12/05 09:13:08;;;;;;;27.90;19.45;;;5.10;99.90;;;;;;5054142;28;20205;-50
2022/12/05 09:15:37;;;;;;;27.65;19.55;;;5.30;99.90;;;;;;5054541;28;20225;-51
2022/12/05 09:18:04;;;;;;;28.35;20.40;;;5.40;99.90;;;;;;5054266;28;20196;-50
2022/12/05 09:20:31;;;;;;;30.75;18.75;;;5.50;99.90;;;;;;5052836;28;20274;-50
2022/12/05 09:22:59;;;;;;;25.92;17.35;;;5.90;99.90;;;;;;5053386;28;20226;-51
2022/12/05 09:25:26;;;;;;;23.25;17.88;;;5.20;99.90;;;;;;5053142;28;20221;-51
2022/12/05 09:27:53;;;;;;;23.25;17.75;;;5.20;99.90;;;;;;5053375;28;20314;-50
2022/12/05 09:30:20;;;;;;;28.80;19.20;;;4.70;99.90;;;;;;5052824;28;20192;-49
2022/12/05 09:32:47;;;;;;;22.52;16.83;;;5.20;99.90;;;;;;5053279;28;20197;-50
2022/12/05 09:35:13;;;;;;;26.80;17.70;;;5.50;99.90;;;;;;5035260;28;20223;-50
2022/12/05 09:37:40;;;;;;;23.60;17.58;;;5.30;99.90;;;;;;5053502;28;20480;-50
2022/12/05 09:40:16;;;;;;;26.23;18.15;;;5.00;99.90;;;;;;5052585;28;20196;-50
2022/12/05 09:43:03;;;;;;;27.02;18.02;;;5.40;99.90;;;;;;5053052;28;20204;-50
2022/12/05 09:45:35;;;;;;;30.90;19.00;;;5.60;99.90;;;;;;5052623;28;20219;-50
2022/12/05 09:48:10;;;;;;;25.17;17.07;;;5.30;99.90;;;;;;5034966;28;20223;-49
2022/12/05 09:50:44;;;;;;;23.70;16.30;;;5.60;99.90;;;;;;5052172;28;20439;-49
2022/12/05 09:53:21;;;;;;;23.88;17.33;;;4.90;99.90;;;;;;5052786;28;20851;-50
2022/12/05 09:55:53;;;;;;;22.57;17.70;;;4.80;99.90;;;;;;5052880;28;20291;-51
2022/12/05 09:58:28;;;;;;;22.48;17.10;;;5.50;99.90;;;;;;5052648;28;20404;-50
2022/12/05 10:01:02;;;;;;;27.90;16.90;;;5.30;99.90;;;;;;5052859;28;20549;-50
2022/12/05 10:03:35;;;;;;;27.55;16.48;;;5.20;99.90;;;;;;5052492;28;20209;-50
2022/12/05 10:06:12;;;;;;;24.15;17.38;;;4.80;99.90;;;;;;5034114;28;20220;-51
2022/12/05 10:09:04;;;;;;;23.35;17.67;;;5.50;99.90;;;;;;5051637;28;20382;-50
2022/12/05 10:11:37;;;;;;;28.30;18.52;;;5.50;99.90;;;;;;5052489;28;20200;-50
2022/12/05 10:14:11;;;;;;;26.23;18.67;;;4.80;99.90;;;;;;5052353;28;20200;-51
2022/12/05 10:16:45;;;;;;;27.93;20.60;;;5.00;99.90;;;;;;5052373;28;20233;-50
2022/12/05 10:19:15;;;;;;;23.48;16.80;;;5.70;99.90;;;;;;5051843;28;20436;-50
2022/12/05 10:21:49;;;;;;;24.88;18.05;;;5.60;99.90;;;;;;5052388;28;20195;-50
2022/12/05 10:24:20;;;;;;;23.42;17.77;;;5.40;99.90;;;;;;5052355;28;20197;-51
2022/12/05 10:26:55;;;;;;;24.45;18.90;;;5.30;99.90;;;;;;5052318;28;20284;-51
2022/12/05 10:29:28;;;;;;;25.17;18.70;;;5.90;99.90;;;;;;5051703;28;20224;-50
2022/12/05 10:32:03;;;;;;;26.88;17.63;;;5.70;99.90;;;;;;5052468;28;20205;-51
2022/12/05 10:34:33;;;;;;;23.97;16.67;;;5.70;99.90;;;;;;5052519;28;20195;-49
2022/12/05 10:37:09;;;;;;;23.95;18.42;;;5.70;99.90;;;;;;5052238;28;20444;-52
2022/12/05 10:39:36;;;;;;;29.00;18.17;;;5.70;99.90;;;;;;5051582;28;20193;-50
2022/12/05 10:42:04;;;;;;;30.98;19.65;;;5.00;99.90;;;;;;5051567;28;20286;-50
2022/12/05 10:44:32;;;;;;;25.33;19.73;;;5.50;99.90;;;;;;5052230;28;20201;-51
2022/12/05 10:47:00;;;;;;;26.88;19.65;;;5.10;99.90;;;;;;5052810;28;21075;-47
2022/12/05 10:49:27;;;;;;;28.52;19.77;;;5.70;99.90;;;;;;5033814;28;20227;-47
2022/12/05 10:51:54;;;;;;;24.55;17.73;;;5.10;99.90;;;;;;5052800;28;20278;-47
2022/12/05 10:54:25;;;;;;;27.48;18.83;;;5.40;99.90;;;;;;5052816;28;20216;-48
2022/12/05 10:56:53;;;;;;;30.73;19.00;;;5.80;99.90;;;;;;5034556;28;20220;-48
2022/12/05 10:59:23;;;;;;;30.00;19.80;;;5.70;99.90;;;;;;5051636;28;20417;-49
2022/12/05 11:01:53;;;;;;;26.10;20.27;;;5.60;99.90;;;;;;5052221;28;20203;-50
2022/12/05 11:04:24;;;;;;;26.70;19.17;;;5.50;99.90;;;;;;5051923;28;20530;-48
2022/12/05 11:06:53;;;;;;;29.80;20.27;;;5.50;99.90;;;;;;5051077;28;20226;-48
2022/12/05 11:09:22;;;;;;;24.42;19.10;;;5.80;99.90;;;;;;5050855;28;20226;-49
2022/12/05 11:12:03;;;;;;;25.13;19.27;;;5.60;99.90;;;;;;5051598;28;20208;-49
2022/12/05 11:14:33;;;;;;;28.23;20.10;;;5.80;99.90;;;;;;5051547;28;20418;-50
2022/12/05 11:17:01;;;;;;;27.73;18.57;;;5.80;99.90;;;;;;5052013;28;20785;-48
2022/12/05 11:19:30;;;;;;;26.90;17.88;;;5.40;99.90;;;;;;5033106;28;20704;-48
2022/12/05 11:21:57;;;;;;;26.50;19.50;;;5.80;99.90;;;;;;5051469;28;20245;-48
2022/12/05 11:24:28;;;;;;;25.00;18.63;;;5.80;99.90;;;;;;5051477;28;20415;-49
2022/12/05 11:26:55;;;;;;;27.40;20.03;;;5.60;99.90;;;;;;5051338;28;20491;-49
2022/12/05 11:29:32;;;;;;;26.13;18.43;;;5.70;99.90;;;;;;5050784;28;20446;-49
2022/12/05 11:31:59;;;;;;;26.60;19.27;;;5.70;99.90;;;;;;5051718;28;20410;-49
2022/12/05 11:34:31;;;;;;;25.73;18.20;;;5.10;99.90;;;;;;5051388;28;20456;-49
2022/12/05 11:37:03;;;;;;;38.38;21.98;;;5.90;99.90;;;;;;5051853;28;20450;-49
2022/12/05 11:39:30;;;;;;;27.57;19.60;;;6.00;99.90;;;;;;5051014;28;20189;-49
2022/12/05 11:42:25;;;;;;;29.30;20.90;;;5.80;99.90;;;;;;5051544;28;20447;-50
2022/12/05 11:45:10;;;;;;;37.17;22.30;;;6.20;99.90;;;;;;5051318;28;20287;-47
2022/12/05 11:47:54;;;;;;;26.98;19.63;;;5.80;99.90;;;;;;5050991;28;20450;-48
2022/12/05 11:50:32;;;;;;;36.43;20.07;;;6.00;99.90;;;;;;5050458;28;20274;-49
2022/12/05 11:53:13;;;;;;;30.58;21.65;;;5.90;99.90;;;;;;5051724;28;20416;-49
2022/12/05 11:55:45;;;;;;;30.07;20.07;;;5.80;99.90;;;;;;5033712;28;20244;-49
2022/12/05 11:58:32;;;;;;;29.60;21.30;;;5.80;99.90;;;;;;5051523;28;20435;-48
2022/12/05 12:01:09;;;;;;;28.63;19.87;;;6.20;99.90;;;;;;5034137;28;20422;-48
2022/12/05 12:04:03;;;;;;;34.20;20.42;;;6.40;99.90;;;;;;5051994;28;20535;-47
2022/12/05 12:06:33;;;;;;;28.17;19.47;;;5.80;99.90;;;;;;5051782;28;20229;-48
2022/12/05 12:09:20;;;;;;;28.83;20.33;;;6.10;99.90;;;;;;5051227;28;20946;-48
2022/12/05 12:11:53;;;;;;;28.90;21.55;;;5.90;99.90;;;;;;5034071;28;20417;-48
2022/12/05 12:14:27;;;;;;;26.75;19.35;;;6.30;99.90;;;;;;5051500;28;20668;-49
2022/12/05 12:17:07;;;;;;;27.52;19.15;;;6.30;99.90;;;;;;5051133;28;20225;-48
2022/12/05 12:19:51;;;;;;;28.27;20.17;;;6.00;99.90;;;;;;5054143;28;20201;-49
2022/12/05 12:22:33;;;;;;;28.33;19.83;;;6.30;99.90;;;;;;5054773;28;20789;-50
2022/12/05 12:25:15;;;;;;;36.15;22.13;;;6.50;99.90;;;;;;5054975;28;20412;-49
2022/12/05 12:27:53;;;;;;;28.73;20.40;;;6.30;99.90;;;;;;5054738;28;20188;-50
2022/12/05 12:30:21;;;;;;;33.03;23.13;;;6.10;99.90;;;;;;5035690;28;20448;-48
2022/12/05 12:33:02;;;;;;;34.53;22.57;;;6.00;99.90;;;;;;5054693;28;20415;-49
2022/12/05 12:35:31;;;;;;;32.20;22.00;;;6.10;99.90;;;;;;5054270;28;20417;-49
2022/12/05 12:38:11;;;;;;;29.07;21.10;;;6.10;99.90;;;;;;5054329;28;20260;-48
2022/12/05 12:40:45;;;;;;;34.00;23.30;;;5.60;99.90;;;;;;5053700;28;20840;-51
2022/12/05 12:43:26;;;;;;;35.17;21.67;;;6.20;99.90;;;;;;5054088;28;20397;-49
2022/12/05 12:46:08;;;;;;;35.33;22.27;;;5.90;99.90;;;;;;5054037;28;21000;-49
2022/12/05 12:48:51;;;;;;;35.60;23.20;;;6.10;99.90;;;;;;5053473;28;20487;-49
2022/12/05 12:51:18;;;;;;;34.43;21.80;;;6.20;99.90;;;;;;5054189;28;20404;-50
2022/12/05 12:54:07;;;;;;;37.70;24.60;;;6.10;99.90;;;;;;5054305;28;20767;-48
2022/12/05 12:56:46;;;;;;;33.43;23.03;;;6.20;99.90;;;;;;5054059;28;20581;-49
2022/12/05 12:59:36;;;;;;;36.60;22.95;;;6.10;99.90;;;;;;5035457;28;20450;-50
2022/12/05 13:02:09;;;;;;;43.47;25.07;;;6.10;99.90;;;;;;5054316;28;20209;-49